Time;durP1;ratioP1;P1;durP2;ratioP2;P2;SDS_P1;SDS_P2;PMS_P1;PMS_P2;Temp;Humidity;BMP_temperature;BMP_pressure;BME280_temperature;BME280_humidity;BME280_pressure;Samples;Min_cycle;Max_cycle;Signal;HPM_P1;HPM_P2
2023/03/07 00:02:24;;;;;;;25.95;14.75;;;;;;;7.24;85.90;99459.78;5031306;28;20102;-28
2023/03/07 00:04:50;;;;;;;26.52;15.98;;;;;;;7.17;85.96;99449.22;5031362;28;20493;-31
2023/03/07 00:07:15;;;;;;;24.35;14.43;;;;;;;7.17;85.83;99467.78;5047466;28;20040;-31
2023/03/07 00:09:41;;;;;;;26.25;15.80;;;;;;;7.00;87.45;99467.44;5042513;28;20033;-29
2023/03/07 00:12:07;;;;;;;26.67;14.68;;;;;;;7.15;86.55;99469.84;5035881;28;20040;-29
2023/03/07 00:14:33;;;;;;;29.02;15.35;;;;;;;7.24;85.31;99450.00;5051064;28;20032;-30
2023/03/07 00:17:01;;;;;;;25.02;15.05;;;;;;;7.41;84.42;99468.06;5050461;28;20086;-30
2023/03/07 00:19:27;;;;;;;23.90;14.30;;;;;;;6.89;85.57;99448.75;5049748;28;20028;-31
2023/03/07 00:21:52;;;;;;;24.40;13.40;;;;;;;7.06;83.46;99464.97;5050471;28;20033;-29
2023/03/07 00:24:18;;;;;;;23.38;13.43;;;;;;;7.04;83.86;99457.22;5050281;28;20492;-28
2023/03/07 00:26:45;;;;;;;25.90;14.88;;;;;;;7.10;84.12;99467.00;5050858;28;20037;-29
2023/03/07 00:29:10;;;;;;;30.47;16.50;;;;;;;6.64;85.47;99462.69;5050671;28;20045;-29
2023/03/07 00:31:38;;;;;;;30.17;16.23;;;;;;;6.33;87.26;99448.25;5050804;28;20036;-31
2023/03/07 00:34:09;;;;;;;28.63;15.38;;;;;;;6.54;85.54;99438.44;5050683;28;20489;-37
2023/03/07 00:36:34;;;;;;;25.35;14.65;;;;;;;6.32;86.35;99427.28;5050485;28;20029;-31
2023/03/07 00:39:00;;;;;;;25.50;15.15;;;;;;;6.33;87.33;99424.41;5050531;28;20024;-32
2023/03/07 00:41:27;;;;;;;24.75;15.32;;;;;;;6.69;86.28;99439.00;5050314;28;20033;-31
2023/03/07 00:43:56;;;;;;;26.63;15.10;;;;;;;6.67;86.12;99441.06;5050267;28;20080;-29
2023/03/07 00:46:23;;;;;;;26.90;14.95;;;;;;;6.91;85.03;99446.69;5050812;28;20279;-30
2023/03/07 00:48:48;;;;;;;30.33;16.25;;;;;;;6.73;85.62;99432.28;5050278;28;20029;-28
2023/03/07 00:51:16;;;;;;;26.13;15.68;;;;;;;6.88;85.00;99439.16;5049179;28;20083;-29
2023/03/07 00:53:42;;;;;;;24.70;14.70;;;;;;;6.77;85.03;99414.13;5050710;28;20032;-30
2023/03/07 00:56:12;;;;;;;29.65;15.77;;;;;;;6.81;85.01;99432.03;5050756;28;20044;-28
2023/03/07 00:58:40;;;;;;;26.33;14.85;;;;;;;6.63;85.54;99419.44;5049937;28;20479;-28
2023/03/07 01:01:08;;;;;;;27.00;14.38;;;;;;;6.45;84.68;99390.16;5049837;28;20025;-31
2023/03/07 01:03:34;;;;;;;25.73;15.05;;;;;;;6.19;87.22;99381.28;5049766;28;20060;-31
2023/03/07 01:06:06;;;;;;;24.65;14.15;;;;;;;6.50;87.12;99419.50;5050429;28;20071;-30
2023/03/07 01:08:31;;;;;;;25.00;14.90;;;;;;;6.63;86.14;99416.00;5048643;28;20032;-29
2023/03/07 01:11:02;;;;;;;23.65;13.80;;;;;;;5.95;87.26;99395.97;5050124;28;20073;-30
2023/03/07 01:13:28;;;;;;;25.20;14.68;;;;;;;5.99;86.59;99407.78;5049108;28;20115;-29
2023/03/07 01:15:53;;;;;;;23.77;13.50;;;;;;;5.66;88.60;99418.34;5049992;28;20163;-32
2023/03/07 01:18:18;;;;;;;27.20;13.75;;;;;;;5.72;88.50;99395.53;5049918;28;20112;-31
2023/03/07 01:20:44;;;;;;;26.90;14.30;;;;;;;5.94;88.56;99396.13;5048852;28;20107;-30
2023/03/07 01:23:09;;;;;;;30.13;15.18;;;;;;;5.98;89.07;99411.44;5049631;28;20036;-30
2023/03/07 01:25:40;;;;;;;27.75;15.43;;;;;;;5.99;89.33;99407.78;5049648;28;20033;-30
2023/03/07 01:28:06;;;;;;;27.67;15.30;;;;;;;5.90;90.42;99386.97;5049791;28;20444;-30
2023/03/07 01:30:32;;;;;;;29.55;16.83;;;;;;;5.94;90.23;99396.13;5049474;28;20497;-31
2023/03/07 01:33:00;;;;;;;27.05;15.50;;;;;;;6.06;89.13;99391.06;5049478;28;20036;-32
2023/03/07 01:35:28;;;;;;;24.92;14.63;;;;;;;6.09;88.83;99401.25;5049364;28;20056;-29
2023/03/07 01:37:54;;;;;;;27.80;14.57;;;;;;;6.07;88.29;99408.56;5049690;28;20025;-30
2023/03/07 01:40:22;;;;;;;25.70;15.10;;;;;;;6.11;87.83;99396.56;5049279;28;20028;-30
2023/03/07 01:42:48;;;;;;;;;;;;;;;6.09;86.69;99406.53;5049594;28;20048;-30
2023/03/07 01:45:13;;;;;;;26.60;13.93;;;;;;;5.43;88.16;99408.97;5048924;28;19923;-29
2023/03/07 01:47:42;;;;;;;23.65;14.00;;;;;;;5.32;89.11;99391.03;5049410;28;20630;-30
2023/03/07 01:50:10;;;;;;;;;;;;;;;5.66;88.60;99406.94;5049910;28;20029;-30
2023/03/07 01:52:38;;;;;;;;;;;;;;;5.63;88.92;99403.66;5049904;28;20040;-29
2023/03/07 01:55:23;;;;;;;25.98;15.18;;;;;;;5.52;88.52;99379.69;5049593;28;20394;-30
2023/03/07 01:57:51;;;;;;;25.48;14.05;;;;;;;5.33;88.37;99399.78;5048626;28;20456;-30
2023/03/07 02:00:25;;;;;;;45.95;19.55;;;;;;;5.19;91.49;99381.25;5049063;28;20025;-30
2023/03/07 02:03:05;;;;;;;38.53;18.58;;;;;;;5.21;89.59;99367.81;5048949;28;20055;-30
2023/03/07 02:05:34;;;;;;;30.73;16.02;;;;;;;5.51;90.36;99394.72;5048897;28;20087;-29
2023/03/07 02:08:01;;;;;;;28.33;15.57;;;;;;;5.64;89.62;99373.56;5048495;28;20029;-31
2023/03/07 02:10:29;;;;;;;28.00;15.45;;;;;;;5.13;89.97;99374.13;5048543;28;20040;-31
2023/03/07 02:12:54;;;;;;;38.00;17.65;;;;;;;4.78;90.40;99390.09;5040810;28;20025;-30
2023/03/07 02:15:20;;;;;;;36.20;18.50;;;;;;;4.88;89.01;99370.38;5028576;28;20091;-30
2023/03/07 02:17:46;;;;;;;35.13;17.65;;;;;;;5.10;89.24;99390.38;5028016;28;20029;-30
2023/03/07 02:20:21;;;;;;;29.75;15.13;;;;;;;5.34;89.10;99399.56;5028621;28;20096;-31
2023/03/07 02:22:48;;;;;;;27.15;16.42;;;;;;;5.05;92.03;99390.16;5027104;28;20057;-30
2023/03/07 02:25:23;;;;;;;27.50;15.77;;;;;;;4.42;93.80;99383.22;5029005;28;20021;-31
2023/03/07 02:27:52;;;;;;;27.35;14.60;;;;;;;4.73;94.59;99381.94;5028747;28;20149;-31
2023/03/07 02:30:18;;;;;;;29.27;15.75;;;;;;;5.05;92.82;99406.03;5028406;28;20032;-30
2023/03/07 02:32:44;;;;;;;28.20;15.32;;;;;;;4.84;94.12;99401.66;5028275;28;20030;-31
2023/03/07 02:35:18;;;;;;;29.15;15.10;;;;;;;4.79;94.90;99391.69;5028838;28;20029;-29
2023/03/07 02:37:46;;;;;;;28.73;16.05;;;;;;;4.68;94.44;99394.94;5028247;28;20029;-30
2023/03/07 02:40:15;;;;;;;26.95;15.48;;;;;;;4.76;93.54;99378.91;5028925;28;20117;-30
2023/03/07 02:42:42;;;;;;;30.13;16.88;;;;;;;5.16;92.36;99404.63;5028283;28;20072;-33
2023/03/07 02:45:11;;;;;;;30.25;17.35;;;;;;;5.18;92.06;99403.41;5028708;28;20456;-30
2023/03/07 02:47:36;;;;;;;30.65;17.10;;;;;;;5.24;91.80;99397.31;5028726;28;20029;-30
2023/03/07 02:50:02;;;;;;;33.47;18.33;;;;;;;5.19;91.76;99391.00;5026735;28;20036;-32
2023/03/07 02:52:28;;;;;;;31.90;16.95;;;;;;;5.15;90.80;99395.88;5028351;28;20472;-32
2023/03/07 02:54:54;;;;;;;35.00;18.65;;;;;;;5.08;91.47;99404.81;5028610;28;20048;-31
2023/03/07 02:57:19;;;;;;;25.80;14.75;;;;;;;4.49;90.77;99395.63;5027848;28;20470;-28
2023/03/07 02:59:45;;;;;;;23.55;12.90;;;;;;;4.06;91.60;99379.97;5028227;28;20022;-31
2023/03/07 03:02:10;;;;;;;22.67;12.35;;;;;;;4.06;92.51;99393.16;5027984;28;20030;-31
2023/03/07 03:04:36;;;;;;;23.25;13.77;;;;;;;4.13;93.43;99415.13;5028292;28;20025;-30
2023/03/07 03:07:01;;;;;;;22.55;13.40;;;;;;;4.22;93.92;99411.31;5028670;28;20035;-32
2023/03/07 03:09:27;;;;;;;26.65;14.13;;;;;;;4.26;95.88;99409.94;5028000;28;20025;-31
2023/03/07 03:11:52;;;;;;;23.80;13.77;;;;;;;4.33;96.08;99410.78;5028394;28;20079;-30
2023/03/07 03:14:17;;;;;;;23.98;13.50;;;;;;;4.23;95.42;99395.31;5043999;28;20116;-30
2023/03/07 03:16:43;;;;;;;25.13;13.90;;;;;;;4.32;94.44;99408.34;5047834;28;20382;-30
2023/03/07 03:19:08;;;;;;;28.00;14.77;;;;;;;4.20;95.87;99403.59;5048363;28;20021;-30
2023/03/07 03:21:34;;;;;;;33.17;16.45;;;;;;;4.20;96.14;99414.16;5048551;28;20025;-29
2023/03/07 03:24:06;;;;;;;29.05;14.65;;;;;;;4.19;96.48;99414.38;5048246;28;20082;-31
2023/03/07 03:26:35;;;;;;;27.63;15.35;;;;;;;4.05;96.79;99388.91;5047872;28;20029;-29
2023/03/07 03:29:02;;;;;;;28.63;16.05;;;;;;;4.10;96.40;99418.16;5047620;28;20020;-30
2023/03/07 03:31:29;;;;;;;31.80;16.23;;;;;;;3.99;96.58;99414.22;5047583;28;20114;-30
2023/03/07 03:33:55;;;;;;;33.10;16.33;;;;;;;3.91;96.66;99401.19;5047661;28;20079;-30
2023/03/07 03:36:24;;;;;;;31.77;16.77;;;;;;;3.97;96.56;99414.41;5047736;28;20021;-30
2023/03/07 03:38:59;;;;;;;35.35;16.70;;;;;;;3.96;97.26;99417.22;5047745;28;20036;-31
2023/03/07 03:41:26;;;;;;;31.35;16.40;;;;;;;3.94;98.32;99425.34;5047768;28;20466;-30
2023/03/07 03:43:52;;;;;;;32.30;15.97;;;;;;;3.94;98.40;99404.25;5047239;28;20049;-30
2023/03/07 03:46:19;;;;;;;33.33;16.73;;;;;;;4.00;98.34;99419.31;5047441;28;20264;-31
2023/03/07 03:48:51;;;;;;;34.78;17.52;;;;;;;3.98;97.34;99402.03;5047929;28;20029;-30
2023/03/07 03:51:16;;;;;;;35.20;18.63;;;;;;;3.78;97.37;99380.78;5047657;28;20488;-30
2023/03/07 03:53:42;;;;;;;32.17;17.65;;;;;;;3.79;98.70;99387.69;5047692;28;20040;-29
2023/03/07 03:56:10;;;;;;;30.63;16.60;;;;;;;3.62;99.41;99395.88;5050765;28;20129;-30
2023/03/07 03:58:37;;;;;;;36.67;19.30;;;;;;;3.63;100.00;99407.22;5050943;28;20110;-29
2023/03/07 04:01:04;;;;;;;32.92;18.25;;;;;;;3.80;99.64;99386.66;5051448;28;20767;-30
2023/03/07 04:03:35;;;;;;;34.53;19.45;;;;;;;3.57;100.00;99415.91;5050920;28;20033;-32
2023/03/07 04:06:05;;;;;;;29.00;15.63;;;;;;;3.16;99.09;99401.50;5051659;28;20044;-30
2023/03/07 04:08:32;;;;;;;30.55;17.23;;;;;;;3.42;99.13;99392.25;5051101;28;20059;-31
2023/03/07 04:10:59;;;;;;;33.20;19.30;;;;;;;2.99;100.00;99385.13;5050925;28;20497;-30
2023/03/07 04:13:25;;;;;;;36.45;18.70;;;;;;;3.22;100.00;99405.22;5046544;28;20133;-29
2023/03/07 04:15:51;;;;;;;35.00;19.10;;;;;;;3.44;97.66;99405.25;5031210;28;20041;-29
2023/03/07 04:18:17;;;;;;;41.05;24.15;;;;;;;3.34;98.29;99390.53;5031513;28;20828;-30
2023/03/07 04:20:43;;;;;;;28.63;16.70;;;;;;;3.50;96.46;99418.47;5031313;28;20533;-30
2023/03/07 04:23:09;;;;;;;27.70;15.65;;;;;;;3.29;97.20;99400.00;5031156;28;20029;-30
2023/03/07 04:25:34;;;;;;;30.40;16.23;;;;;;;3.19;98.90;99405.63;5030628;28;20040;-31
2023/03/07 04:28:00;;;;;;;31.92;15.43;;;;;;;3.39;97.46;99427.72;5030487;28;20030;-30
2023/03/07 04:30:25;;;;;;;29.45;16.55;;;;;;;3.25;97.15;99431.22;5031509;28;20032;-30
2023/03/07 04:32:54;;;;;;;43.30;26.30;;;;;;;2.99;96.43;99410.66;5029580;28;20559;-33
2023/03/07 04:35:19;;;;;;;36.97;21.35;;;;;;;2.80;99.43;99402.34;5030325;28;20052;-30
2023/03/07 04:37:45;;;;;;;35.85;18.08;;;;;;;2.77;100.00;99407.97;5033753;28;20175;-29
2023/03/07 04:40:10;;;;;;;30.38;19.00;;;;;;;2.58;100.00;99413.81;5031064;28;20037;-30
2023/03/07 04:42:36;;;;;;;32.42;18.88;;;;;;;2.65;100.00;99435.78;5030383;28;20057;-31
2023/03/07 04:45:02;;;;;;;29.60;18.48;;;;;;;2.63;99.66;99429.88;5030980;28;20112;-30
2023/03/07 04:47:28;;;;;;;42.58;27.92;;;;;;;2.65;99.39;99441.03;5030663;28;20429;-30
2023/03/07 04:49:53;;;;;;;71.75;42.30;;;;;;;2.88;98.16;99433.03;5030640;28;20066;-30
2023/03/07 04:52:18;;;;;;;115.45;60.30;;;;;;;2.76;97.72;99430.06;5029299;28;20486;-30
2023/03/07 04:54:44;;;;;;;74.97;47.13;;;;;;;2.71;97.07;99413.97;5030662;28;20022;-31
2023/03/07 04:57:10;;;;;;;68.82;35.22;;;;;;;2.81;98.17;99430.31;5030435;28;20033;-30
2023/03/07 04:59:38;;;;;;;63.30;41.45;;;;;;;2.89;97.96;99431.22;5030820;28;20701;-31
2023/03/07 05:02:06;;;;;;;35.75;20.42;;;;;;;3.03;98.99;99454.06;5030855;28;20037;-29
2023/03/07 05:04:32;;;;;;;30.55;16.92;;;;;;;3.04;100.00;99450.41;5030173;28;20065;-30
2023/03/07 05:06:57;;;;;;;28.45;16.58;;;;;;;3.14;100.00;99453.56;5030481;28;20121;-30
2023/03/07 05:09:22;;;;;;;58.13;37.58;;;;;;;3.05;100.00;99431.00;5030128;28;20053;-30
2023/03/07 05:11:48;;;;;;;104.68;71.88;;;;;;;2.99;100.00;99432.53;5030381;28;20037;-30
2023/03/07 05:14:13;;;;;;;85.55;55.45;;;;;;;2.93;100.00;99437.75;5030674;28;20029;-28
2023/03/07 05:16:39;;;;;;;88.10;43.08;;;;;;;3.03;100.00;99448.00;5042072;28;20030;-33
2023/03/07 05:19:05;;;;;;;57.03;32.75;;;;;;;3.07;100.00;99429.00;5040416;28;20480;-31
2023/03/07 05:21:31;;;;;;;32.83;18.63;;;;;;;3.02;100.00;99436.63;5038144;28;20478;-38
2023/03/07 05:23:56;;;;;;;34.63;19.98;;;;;;;3.27;99.76;99445.03;5038903;28;20028;-30
2023/03/07 05:26:22;;;;;;;48.47;29.27;;;;;;;3.66;98.48;99445.56;5039650;28;20025;-30
2023/03/07 05:28:48;;;;;;;43.50;27.48;;;;;;;4.03;97.05;99455.03;5037957;28;20103;-32
2023/03/07 05:31:14;;;;;;;50.25;36.42;;;;;;;4.08;97.32;99465.03;5039022;28;20029;-31
2023/03/07 05:33:41;;;;;;;35.78;18.38;;;;;;;3.84;99.08;99469.69;5039452;28;20025;-30
2023/03/07 05:36:07;;;;;;;40.67;20.77;;;;;;;4.00;98.29;99463.31;5037669;28;20409;-32
2023/03/07 05:38:33;;;;;;;35.92;19.63;;;;;;;3.90;98.27;99428.53;5038894;28;20492;-30
2023/03/07 05:40:58;;;;;;;32.03;17.92;;;;;;;4.40;96.75;99451.22;5039131;28;20014;-30
2023/03/07 05:43:24;;;;;;;38.65;22.55;;;;;;;4.62;96.66;99469.66;5037289;28;20049;-31
2023/03/07 05:45:49;;;;;;;34.08;19.55;;;;;;;4.67;96.95;99469.88;5039573;28;20104;-32
2023/03/07 05:48:17;;;;;;;38.28;26.75;;;;;;;4.69;97.26;99470.50;5038479;28;20038;-32
2023/03/07 05:50:42;;;;;;;40.65;26.77;;;;;;;4.76;96.89;99446.75;5037650;28;20025;-31
2023/03/07 05:53:08;;;;;;;38.38;25.17;;;;;;;4.69;98.30;99438.00;5039480;28;20473;-30
2023/03/07 05:55:33;;;;;;;42.97;27.90;;;;;;;4.96;99.09;99462.69;5037829;28;20497;-30
2023/03/07 05:57:59;;;;;;;39.28;26.50;;;;;;;5.21;97.44;99466.47;5038116;28;20024;-31
2023/03/07 06:00:24;;;;;;;33.28;18.35;;;;;;;5.37;96.80;99448.59;5039364;28;20090;-31
2023/03/07 06:02:50;;;;;;;32.70;18.30;;;;;;;5.75;95.08;99458.63;5044244;28;20072;-29
2023/03/07 06:05:15;;;;;;;41.25;33.88;;;;;;;5.77;95.94;99469.84;5048398;28;20025;-32
2023/03/07 06:07:41;;;;;;;43.55;35.72;;;;;;;5.73;96.50;99453.53;5048486;28;20187;-32
2023/03/07 06:10:07;;;;;;;29.65;19.45;;;;;;;5.90;95.28;99475.13;5049057;28;20040;-30
2023/03/07 06:12:33;;;;;;;47.28;36.08;;;;;;;6.03;94.56;99443.41;5048720;28;20492;-31
2023/03/07 06:14:58;;;;;;;28.92;18.98;;;;;;;6.31;94.19;99458.22;5048578;28;20086;-34
2023/03/07 06:17:24;;;;;;;29.75;18.45;;;;;;;6.51;93.02;99460.03;5037273;28;20034;-31
2023/03/07 06:19:50;;;;;;;31.48;18.90;;;;;;;6.28;94.76;99458.66;5027278;28;20041;-30
2023/03/07 06:22:15;;;;;;;30.13;17.98;;;;;;;6.38;94.17;99458.25;5027484;28;20107;-32
2023/03/07 06:24:40;;;;;;;29.55;18.63;;;;;;;6.54;93.50;99479.00;5029025;28;20112;-29
2023/03/07 06:27:06;;;;;;;32.40;19.38;;;;;;;6.54;94.30;99468.41;5028782;28;20075;-29
2023/03/07 06:29:31;;;;;;;34.53;20.40;;;;;;;6.50;94.66;99455.75;5028368;28;20409;-31
2023/03/07 06:31:57;;;;;;;37.75;21.77;;;;;;;6.78;93.76;99480.19;5028486;28;20421;-29
2023/03/07 06:34:22;;;;;;;32.53;19.20;;;;;;;6.58;94.36;99469.63;5034358;28;20117;-31
2023/03/07 06:36:47;;;;;;;34.25;19.73;;;;;;;6.31;95.85;99473.31;5038055;28;20167;-31
2023/03/07 06:39:15;;;;;;;32.13;18.05;;;;;;;6.14;97.75;99483.53;5036449;28;20032;-31
2023/03/07 06:41:41;;;;;;;41.50;20.88;;;;;;;5.87;99.17;99475.53;5037243;28;20036;-30
2023/03/07 06:44:07;;;;;;;41.67;22.33;;;;;;;6.03;99.31;99463.78;5045146;28;20100;-30
2023/03/07 06:46:32;;;;;;;40.67;20.67;;;;;;;6.27;99.37;99483.50;5038922;28;20032;-31
2023/03/07 06:48:58;;;;;;;36.13;20.65;;;;;;;6.29;99.96;99489.41;5037459;28;20159;-31
2023/03/07 06:51:26;;;;;;;35.65;18.58;;;;;;;6.58;97.94;99476.75;5036472;28;20029;-31
2023/03/07 06:53:51;;;;;;;36.97;20.02;;;;;;;6.46;97.36;99481.03;5030616;28;20052;-31
2023/03/07 06:56:16;;;;;;;36.92;18.67;;;;;;;6.43;97.08;99504.25;5043308;28;20501;-30
2023/03/07 06:58:42;;;;;;;36.05;21.08;;;;;;;6.73;95.24;99481.81;5048359;28;20024;-30
2023/03/07 07:01:15;;;;;;;34.80;20.00;;;;;;;6.82;95.69;99477.91;5048236;28;20115;-31
2023/03/07 07:03:40;;;;;;;36.67;19.85;;;;;;;7.26;95.04;99496.72;5047950;28;20029;-32
2023/03/07 07:06:06;;;;;;;36.40;20.25;;;;;;;7.37;94.20;99498.69;5046261;28;20029;-31
2023/03/07 07:08:31;;;;;;;36.58;21.98;;;;;;;7.82;90.82;99499.44;5048334;28;20025;-31
2023/03/07 07:10:58;;;;;;;33.92;19.08;;;;;;;7.93;90.61;99502.47;5047986;28;20483;-30
2023/03/07 07:13:23;;;;;;;31.45;19.13;;;;;;;8.07;88.26;99492.53;5047932;28;20037;-30
2023/03/07 07:15:49;;;;;;;32.97;18.05;;;;;;;7.77;90.01;99496.63;5047757;28;20432;-31
2023/03/07 07:18:14;;;;;;;33.72;18.83;;;;;;;7.83;89.32;99476.38;5043457;28;20561;-30
2023/03/07 07:20:39;;;;;;;32.20;18.25;;;;;;;7.98;87.68;99484.84;5028084;28;20021;-29
2023/03/07 07:23:05;;;;;;;32.55;19.00;;;;;;;7.94;89.24;99488.94;5028113;28;20037;-30
2023/03/07 07:25:30;;;;;;;32.05;19.92;;;;;;;8.49;85.92;99490.16;5032265;28;20032;-30
2023/03/07 07:27:56;;;;;;;31.63;19.85;;;;;;;8.71;84.04;99488.72;5037750;28;20040;-31
2023/03/07 07:30:21;;;;;;;31.17;19.85;;;;;;;8.74;82.57;99493.56;5038829;28;20060;-30
2023/03/07 07:32:47;;;;;;;31.88;19.50;;;;;;;8.89;82.52;99476.44;5041739;28;20048;-30
2023/03/07 07:35:12;;;;;;;34.45;19.40;;;;;;;8.89;81.62;99468.47;5034485;28;20032;-30
2023/03/07 07:37:39;;;;;;;31.70;18.77;;;;;;;9.13;80.01;99483.50;5031833;28;20386;-30
2023/03/07 07:40:05;;;;;;;30.05;18.58;;;;;;;9.29;78.08;99490.06;5030811;28;20018;-32
2023/03/07 07:42:31;;;;;;;30.95;18.15;;;;;;;9.63;77.00;99499.25;5031979;28;20084;-31
2023/03/07 07:44:56;;;;;;;31.88;17.88;;;;;;;9.50;77.78;99475.50;5031708;28;20080;-29
2023/03/07 07:47:22;;;;;;;29.17;17.45;;;;;;;9.65;75.65;99489.19;5031783;28;20025;-30
2023/03/07 07:49:48;;;;;;;32.08;17.05;;;;;;;9.59;76.35;99487.44;5031839;28;20032;-31
2023/03/07 07:52:13;;;;;;;31.23;19.05;;;;;;;9.69;76.82;99505.53;5031700;28;20038;-30
2023/03/07 07:54:38;;;;;;;30.15;17.38;;;;;;;9.84;77.58;99499.78;5032166;28;20029;-30
2023/03/07 07:57:04;;;;;;;34.15;19.92;;;;;;;9.92;76.95;99475.47;5031824;28;20038;-29
2023/03/07 07:59:32;;;;;;;32.17;19.25;;;;;;;10.32;74.15;99500.69;5031486;28;20036;-30
2023/03/07 08:01:58;;;;;;;30.90;18.38;;;;;;;10.29;75.37;99467.28;5031592;28;20029;-30
2023/03/07 08:04:24;;;;;;;47.03;25.45;;;;;;;10.59;73.20;99479.72;5031963;28;20038;-30
2023/03/07 08:06:51;;;;;;;30.52;18.50;;;;;;;10.95;71.68;99475.13;5031534;28;20033;-32
2023/03/07 08:09:17;;;;;;;26.02;17.90;;;;;;;10.88;71.40;99488.59;5031370;28;20026;-30
2023/03/07 08:11:42;;;;;;;27.73;16.88;;;;;;;10.86;71.82;99494.16;5031369;28;20037;-30
2023/03/07 08:14:08;;;;;;;27.65;16.75;;;;;;;11.18;71.60;99498.28;5030038;28;20029;-30
2023/03/07 08:16:34;;;;;;;37.75;26.77;;;;;;;11.29;70.11;99501.97;5031422;28;20108;-30
2023/03/07 08:19:01;;;;;;;31.67;20.67;;;;;;;11.56;68.36;99470.97;5031340;28;20021;-29
2023/03/07 08:21:27;;;;;;;36.65;21.15;;;;;;;11.76;67.53;99470.50;5050448;28;20037;-32
2023/03/07 08:23:54;;;;;;;32.63;20.30;;;;;;;11.85;70.34;99486.97;5051015;28;20091;-32
2023/03/07 08:26:19;;;;;;;25.20;16.35;;;;;;;11.63;67.80;99471.63;5049086;28;20098;-30
2023/03/07 08:28:45;;;;;;;28.63;17.25;;;;;;;12.02;66.32;99485.16;5050769;28;20505;-30
2023/03/07 08:31:14;;;;;;;30.88;19.48;;;;;;;12.50;66.45;99476.78;5049034;28;20491;-30
2023/03/07 08:33:39;;;;;;;35.88;23.05;;;;;;;12.75;64.74;99487.84;5049975;28;20036;-31
2023/03/07 08:36:05;;;;;;;26.63;17.48;;;;;;;12.69;63.61;99480.81;5050780;28;20037;-31
2023/03/07 08:38:31;;;;;;;26.52;17.63;;;;;;;12.51;64.21;99475.72;5050430;28;20057;-29
2023/03/07 08:41:04;;;;;;;30.10;18.33;;;;;;;12.61;63.92;99475.88;5049749;28;20515;-31
2023/03/07 08:43:31;;;;;;;26.73;17.65;;;;;;;12.74;64.28;99475.50;5049729;28;20532;-30
2023/03/07 08:45:57;;;;;;;28.95;16.98;;;;;;;12.80;64.19;99479.88;5026160;28;20044;-30
2023/03/07 08:48:22;;;;;;;38.65;21.85;;;;;;;13.31;63.95;99474.34;5050089;28;20029;-31
2023/03/07 08:50:48;;;;;;;26.98;17.80;;;;;;;13.50;61.26;99487.41;5050380;28;20025;-31
2023/03/07 08:53:14;;;;;;;25.67;16.20;;;;;;;13.42;61.42;99489.47;5050668;28;20465;-29
2023/03/07 08:55:40;;;;;;;27.65;16.02;;;;;;;13.35;61.51;99482.69;5050280;28;20021;-29
2023/03/07 08:58:05;;;;;;;28.83;18.23;;;;;;;13.89;60.62;99480.00;5050347;28;20033;-29
2023/03/07 09:00:31;;;;;;;24.45;15.70;;;;;;;13.95;60.31;99473.59;5049921;28;20028;-31
2023/03/07 09:03:00;;;;;;;27.77;17.17;;;;;;;13.90;61.30;99475.47;5049947;28;20087;-30
2023/03/07 09:05:27;;;;;;;23.85;16.70;;;;;;;13.93;59.47;99474.94;5050330;28;20574;-29
2023/03/07 09:07:52;;;;;;;29.75;15.85;;;;;;;13.93;59.15;99475.72;5050210;28;20115;-31
2023/03/07 09:10:19;;;;;;;24.08;16.30;;;;;;;14.00;59.86;99459.47;5050126;28;20525;-31
2023/03/07 09:12:45;;;;;;;23.95;15.98;;;;;;;14.23;59.51;99460.97;5050082;28;20425;-30
2023/03/07 09:15:11;;;;;;;24.02;16.17;;;;;;;14.51;57.83;99480.47;5050255;28;20055;-29
2023/03/07 09:17:36;;;;;;;25.92;16.50;;;;;;;14.23;59.72;99463.66;5049484;28;20056;-31
2023/03/07 09:20:03;;;;;;;29.52;18.13;;;;;;;13.80;61.54;99468.94;5048111;28;20029;-29
2023/03/07 09:22:29;;;;;;;33.40;18.92;;;;;;;14.14;61.39;99459.81;5029548;28;20025;-29
2023/03/07 09:24:54;;;;;;;29.88;18.15;;;;;;;14.56;58.03;99464.41;5030185;28;20087;-31
2023/03/07 09:27:20;;;;;;;25.48;16.85;;;;;;;14.89;58.44;99449.81;5029457;28;20091;-29
2023/03/07 09:29:46;;;;;;;22.58;15.95;;;;;;;15.23;56.17;99444.84;5029778;28;20117;-29
2023/03/07 09:32:11;;;;;;;26.67;16.52;;;;;;;15.23;57.06;99441.34;5029519;28;20112;-29
2023/03/07 09:34:37;;;;;;;27.60;16.45;;;;;;;15.31;56.49;99456.16;5030281;28;20025;-30
2023/03/07 09:37:02;;;;;;;33.03;18.27;;;;;;;15.32;56.08;99452.38;5029922;28;20037;-29
2023/03/07 09:39:28;;;;;;;24.25;15.57;;;;;;;15.61;55.01;99455.38;5029594;28;20029;-29
2023/03/07 09:41:58;;;;;;;25.50;16.45;;;;;;;15.73;56.91;99437.13;5029251;28;20041;-32
2023/03/07 09:44:39;;;;;;;23.15;15.45;;;;;;;16.07;54.25;99464.31;5029584;28;20069;-30
2023/03/07 09:47:29;;;;;;;23.73;15.50;;;;;;;16.17;53.46;99457.31;5029925;28;20120;-29
2023/03/07 09:49:57;;;;;;;25.27;15.55;;;;;;;16.03;54.05;99440.91;5029131;28;20041;-30
2023/03/07 09:52:27;;;;;;;;;;;;;;;16.22;54.43;99449.22;5029078;28;20033;-29
2023/03/07 09:54:59;;;;;;;23.80;15.10;;;;;;;16.12;54.72;99427.72;5029400;28;19913;-30
2023/03/07 09:57:57;;;;;;;19.95;13.35;;;;;;;16.52;51.98;99444.88;5028908;28;20554;-30
2023/03/07 10:00:30;;;;;;;25.80;16.00;;;;;;;16.67;54.58;99434.88;5028747;28;20402;-31
2023/03/07 10:03:34;;;;;;;24.35;15.80;;;;;;;16.93;51.16;99452.84;5028870;28;20561;-30
2023/03/07 10:06:11;;;;;;;24.05;16.05;;;;;;;15.81;52.89;99425.06;5027593;28;20045;-30
2023/03/07 10:08:36;;;;;;;21.98;15.00;;;;;;;16.56;52.56;99440.56;5029178;28;20030;-30
2023/03/07 10:11:17;;;;;;;19.70;13.35;;;;;;;16.92;50.97;99435.06;5028999;28;20029;-30
2023/03/07 10:14:03;;;;;;;19.92;12.80;;;;;;;17.05;50.11;99434.47;5028574;28;20022;-30
2023/03/07 10:16:43;;;;;;;18.85;12.40;;;;;;;17.21;48.01;99433.31;5028693;28;20037;-33
2023/03/07 10:19:35;;;;;;;23.17;13.57;;;;;;;17.53;48.75;99428.53;5027242;28;20103;-32
2023/03/07 10:22:13;;;;;;;21.63;13.40;;;;;;;17.74;47.72;99423.81;5028949;28;20517;-30
2023/03/07 10:24:51;;;;;;;19.48;13.98;;;;;;;17.68;50.46;99415.75;5028484;28;20017;-30
2023/03/07 10:27:21;;;;;;;21.17;13.43;;;;;;;17.79;46.76;99410.25;5048471;28;20107;-30
2023/03/07 10:29:53;;;;;;;20.25;13.63;;;;;;;17.95;46.75;99395.59;5048441;28;20029;-30
2023/03/07 10:32:26;;;;;;;19.48;12.63;;;;;;;18.03;47.14;99404.97;5048673;28;20382;-30
2023/03/07 10:35:01;;;;;;;21.08;13.70;;;;;;;18.50;44.63;99419.59;5048705;28;20120;-30
2023/03/07 10:38:04;;;;;;;20.33;12.15;;;;;;;18.72;43.89;99378.56;5048186;28;20116;-30
2023/03/07 10:40:42;;;;;;;17.98;13.10;;;;;;;18.51;44.68;99388.00;5048107;28;20477;-32
2023/03/07 10:43:21;;;;;;;16.40;11.57;;;;;;;18.89;43.84;99380.81;5047997;28;20080;-30
2023/03/07 10:45:47;;;;;;;20.95;13.43;;;;;;;18.97;45.16;99384.75;5042159;28;20044;-30
2023/03/07 10:48:18;;;;;;;17.63;12.60;;;;;;;19.90;42.00;99379.56;5037206;28;20021;-31
2023/03/07 10:50:51;;;;;;;19.90;11.68;;;;;;;19.72;42.00;99372.31;5028372;28;20520;-29
2023/03/07 10:53:29;;;;;;;17.92;11.55;;;;;;;19.84;41.14;99369.94;5027943;28;20107;-29
2023/03/07 10:56:15;;;;;;;18.27;12.15;;;;;;;19.47;41.95;99350.75;5028386;28;20029;-29
2023/03/07 10:59:00;;;;;;;17.48;11.10;;;;;;;19.67;39.29;99344.19;5028353;28;20120;-31
2023/03/07 11:01:28;;;;;;;15.82;11.15;;;;;;;20.02;40.32;99350.13;5027813;28;20021;-29
2023/03/07 11:04:04;;;;;;;20.73;12.43;;;;;;;20.33;41.02;99346.81;5029532;28;20033;-31
2023/03/07 11:06:38;;;;;;;18.00;9.48;;;;;;;19.82;39.92;99345.06;5032519;28;20034;-31
2023/03/07 11:09:15;;;;;;;14.45;9.75;;;;;;;20.46;38.17;99348.72;5032458;28;20032;-30
2023/03/07 11:11:48;;;;;;;14.55;10.57;;;;;;;20.90;38.21;99319.34;5031959;28;20029;-31
2023/03/07 11:14:15;;;;;;;15.70;10.68;;;;;;;21.17;37.01;99329.31;5032292;28;20828;-31
2023/03/07 11:16:51;;;;;;;13.80;8.95;;;;;;;21.35;36.41;99329.44;5031980;28;20026;-30
2023/03/07 11:19:36;;;;;;;13.48;8.82;;;;;;;21.70;35.05;99325.06;5032180;28;20258;-30
2023/03/07 11:22:15;;;;;;;11.23;7.53;;;;;;;21.57;34.36;99313.19;5032225;28;20025;-31
2023/03/07 11:24:48;;;;;;;12.88;8.60;;;;;;;21.52;34.52;99297.03;5031996;28;20060;-30
2023/03/07 11:27:22;;;;;;;15.93;9.50;;;;;;;22.06;35.52;99316.75;5037569;28;20098;-30
2023/03/07 11:30:18;;;;;;;11.68;7.72;;;;;;;21.78;35.20;99299.06;5051835;28;20033;-31